Time;durP1;ratioP1;P1;durP2;ratioP2;P2;SDS_P1;SDS_P2;PMS_P1;PMS_P2;Temp;Humidity;BMP_temperature;BMP_pressure;BME280_temperature;BME280_humidity;BME280_pressure;Samples;Min_cycle;Max_cycle;Signal;HPM_P1;HPM_P2
2023/04/15 00:02:31;;;;;;;8.17;4.00;;;;;;;-150.27;100.00;61272.81;5033110;29;20086;-79
2023/04/15 00:05:03;;;;;;;12.13;3.63;;;;;;;-150.27;100.00;61272.81;5035418;29;20367;-80
2023/04/15 00:07:34;;;;;;;11.27;4.10;;;;;;;-150.27;100.00;61272.81;5034160;29;20037;-80
2023/04/15 00:10:06;;;;;;;11.80;4.70;;;;;;;-150.27;100.00;61272.81;5035617;29;20032;-80
2023/04/15 00:12:38;;;;;;;12.27;4.43;;;;;;;-150.27;100.00;61272.81;5036268;29;20082;-80
2023/04/15 00:15:11;;;;;;;12.77;4.10;;;;;;;-150.27;100.00;61272.81;5054131;29;20045;-79
2023/04/15 00:17:42;;;;;;;13.20;3.93;;;;;;;-150.27;100.00;61272.81;5053640;29;20025;-80
2023/04/15 00:20:14;;;;;;;8.13;4.10;;;;;;;-150.27;100.00;61272.81;5053804;29;20037;-80
2023/04/15 00:22:46;;;;;;;11.40;3.93;;;;;;;-150.27;100.00;61272.81;5054534;29;20026;-80
2023/04/15 00:25:17;;;;;;;9.87;4.43;;;;;;;-150.27;100.00;61272.81;5052676;29;20037;-79
2023/04/15 00:27:48;;;;;;;11.20;4.90;;;;;;;-150.27;100.00;61272.81;5054907;29;20072;-80
2023/04/15 00:30:20;;;;;;;13.80;4.83;;;;;;;-150.27;100.00;61272.81;5053281;29;20057;-80
2023/04/15 00:32:51;;;;;;;8.20;4.40;;;;;;;-150.27;100.00;61272.81;5053351;29;20033;-79
2023/04/15 00:35:23;;;;;;;11.47;4.90;;;;;;;-150.27;100.00;61272.81;5054028;29;20045;-80
2023/04/15 00:37:54;;;;;;;11.77;5.00;;;;;;;-150.27;100.00;61272.81;5044965;29;20026;-81
2023/04/15 00:40:26;;;;;;;9.33;4.67;;;;;;;-150.27;100.00;61272.81;5018453;29;20033;-80
2023/04/15 00:42:58;;;;;;;10.50;3.83;;;;;;;-150.27;100.00;61272.81;5034896;29;20018;-79
2023/04/15 00:45:29;;;;;;;10.17;4.23;;;;;;;-150.27;100.00;61272.81;5038874;29;20033;-80
2023/04/15 00:48:01;;;;;;;11.57;5.47;;;;;;;-150.27;100.00;61272.81;5038484;29;20408;-80
2023/04/15 00:50:32;;;;;;;11.07;4.70;;;;;;;-150.27;100.00;61272.81;5038527;29;20034;-80
2023/04/15 00:53:03;;;;;;;11.60;4.70;;;;;;;-150.27;100.00;61272.81;5039137;29;20027;-81
2023/04/15 00:55:36;;;;;;;13.50;4.23;;;;;;;-150.27;100.00;61272.81;5038651;29;20523;-78
2023/04/15 00:58:07;;;;;;;9.67;4.70;;;;;;;-150.27;100.00;61272.81;5038590;29;20577;-79
2023/04/15 01:00:40;;;;;;;16.03;5.57;;;;;;;-150.27;100.00;61272.81;5038245;29;20034;-80
2023/04/15 01:03:11;;;;;;;10.70;4.23;;;;;;;-150.27;100.00;61272.81;5045835;29;20542;-80
2023/04/15 01:05:43;;;;;;;9.80;4.70;;;;;;;-150.27;100.00;61272.81;5057909;29;20108;-80
2023/04/15 01:08:14;;;;;;;16.83;5.40;;;;;;;-150.27;100.00;61272.81;5057304;29;20032;-78
2023/04/15 01:10:46;;;;;;;13.07;5.60;;;;;;;-150.27;100.00;61272.81;5057392;29;20033;-78
2023/04/15 01:13:18;;;;;;;13.30;5.30;;;;;;;-150.27;100.00;61272.81;5040264;29;20041;-78
2023/04/15 01:15:50;;;;;;;10.80;6.10;;;;;;;-150.27;100.00;61272.81;5040653;29;20649;-79
2023/04/15 01:18:22;;;;;;;10.47;5.57;;;;;;;-150.27;100.00;61272.81;5055993;29;20036;-79
2023/04/15 01:20:54;;;;;;;12.70;6.23;;;;;;;-150.27;100.00;61272.81;5057406;29;20033;-79
2023/04/15 01:23:26;;;;;;;12.70;6.43;;;;;;;-150.27;100.00;61272.81;5056941;29;20032;-79
2023/04/15 01:25:58;;;;;;;11.83;5.97;;;;;;;-150.27;100.00;61272.81;5057568;29;20024;-77
2023/04/15 01:28:32;;;;;;;12.63;5.30;;;;;;;-150.27;100.00;61272.81;5056437;29;20456;-78
2023/04/15 01:31:08;;;;;;;8.85;5.60;;;;;;;-150.27;100.00;61272.81;5057208;29;20040;-78
2023/04/15 01:33:42;;;;;;;10.03;5.30;;;;;;;-150.27;100.00;61272.81;5038869;29;20029;-78
2023/04/15 01:36:13;;;;;;;12.50;6.10;;;;;;;-150.27;100.00;61272.81;5039098;29;20090;-79
2023/04/15 01:38:45;;;;;;;10.40;5.57;;;;;;;-150.27;100.00;61272.81;5057214;29;20470;-77
2023/04/15 01:41:29;;;;;;;12.33;5.53;;;;;;;-150.27;100.00;61272.81;5056180;29;20098;-78
2023/04/15 01:44:01;;;;;;;12.40;5.80;;;;;;;-150.27;100.00;61272.81;5040128;29;20827;-78
2023/04/15 01:46:33;;;;;;;14.20;6.40;;;;;;;-150.27;100.00;61272.81;5056021;29;20086;-78
2023/04/15 01:49:04;;;;;;;11.97;5.53;;;;;;;-150.27;100.00;61272.81;5055985;29;20040;-78
2023/04/15 01:51:35;;;;;;;11.40;5.67;;;;;;;-150.27;100.00;61272.81;5056512;29;20040;-78
2023/04/15 01:54:07;;;;;;;15.03;6.20;;;;;;;-150.27;100.00;61272.81;5056437;29;20033;-79
2023/04/15 01:56:38;;;;;;;11.13;5.67;;;;;;;-150.27;100.00;61272.81;5054553;29;20459;-79
2023/04/15 01:59:09;;;;;;;10.67;5.40;;;;;;;-150.27;100.00;61272.81;5039016;29;20046;-79
2023/04/15 02:01:41;;;;;;;11.97;6.33;;;;;;;-150.27;100.00;61272.81;5038114;29;20038;-79
2023/04/15 02:04:15;;;;;;;12.00;6.60;;;;;;;-150.27;100.00;61272.81;5037122;29;20424;-79
2023/04/15 02:06:46;;;;;;;12.35;5.85;;;;;;;-150.27;100.00;61272.81;5043726;29;20034;-79
2023/04/15 02:09:18;;;;;;;10.73;5.53;;;;;;;-150.27;100.00;61272.81;5038021;29;20392;-80
2023/04/15 02:11:50;;;;;;;14.00;7.07;;;;;;;-150.27;100.00;61272.81;5043136;29;20030;-79
2023/04/15 02:14:22;;;;;;;11.80;7.23;;;;;;;-150.27;100.00;61272.81;5024823;29;20140;-79
2023/04/15 02:16:53;;;;;;;10.17;6.17;;;;;;;-150.27;100.00;61272.81;5039948;29;20100;-79
2023/04/15 02:19:24;;;;;;;12.43;6.63;;;;;;;-150.27;100.00;61272.81;5054989;29;20105;-79
2023/04/15 02:21:56;;;;;;;14.73;6.40;;;;;;;-150.27;100.00;61272.81;5056686;29;20026;-79
2023/04/15 02:24:28;;;;;;;12.83;6.03;;;;;;;-150.27;100.00;61272.81;5055395;29;20679;-80
2023/04/15 02:27:01;;;;;;;11.83;5.63;;;;;;;-150.27;100.00;61272.81;5056119;29;20068;-79
2023/04/15 02:29:32;;;;;;;8.90;5.83;;;;;;;-150.27;100.00;61272.81;5049687;29;20032;-79
2023/04/15 02:32:04;;;;;;;10.67;5.87;;;;;;;-150.27;100.00;61272.81;5019581;29;20026;-79
2023/04/15 02:34:36;;;;;;;16.53;7.30;;;;;;;-150.27;100.00;61272.81;5036723;29;20026;-78
2023/04/15 02:37:09;;;;;;;12.23;6.30;;;;;;;-150.27;100.00;61272.81;5020595;29;20087;-79
2023/04/15 02:39:40;;;;;;;13.53;6.47;;;;;;;-150.27;100.00;61272.81;5020069;29;20018;-79
2023/04/15 02:42:12;;;;;;;12.07;6.80;;;;;;;-150.27;100.00;61272.81;5019839;29;20033;-79
2023/04/15 02:44:43;;;;;;;10.93;6.10;;;;;;;-150.27;100.00;61272.81;5036683;29;20162;-79
2023/04/15 02:47:15;;;;;;;17.97;7.70;;;;;;;-150.27;100.00;61272.81;5035773;29;20030;-79
2023/04/15 02:49:46;;;;;;;9.97;6.33;;;;;;;-150.27;100.00;61272.81;5020376;29;20415;-79
2023/04/15 02:52:17;;;;;;;10.47;6.13;;;;;;;-150.27;100.00;61272.81;5035976;29;20025;-79
2023/04/15 02:54:49;;;;;;;12.43;6.60;;;;;;;-150.27;100.00;61272.81;5019773;29;20062;-79
2023/04/15 02:57:20;;;;;;;13.40;7.13;;;;;;;-150.27;100.00;61272.81;5036245;29;20034;-79
2023/04/15 02:59:52;;;;;;;11.37;7.00;;;;;;;-150.27;100.00;61272.81;5036424;29;20670;-79
2023/04/15 03:02:23;;;;;;;10.83;6.63;;;;;;;-150.27;100.00;61272.81;5039863;29;20045;-79
2023/04/15 03:04:55;;;;;;;10.40;7.03;;;;;;;-150.27;100.00;61272.81;5040495;29;20089;-79
2023/04/15 03:07:26;;;;;;;14.40;5.90;;;;;;;-150.27;100.00;61272.81;5037853;29;20045;-79
2023/04/15 03:09:57;;;;;;;12.80;6.43;;;;;;;-150.27;100.00;61272.81;5048326;29;20109;-79
2023/04/15 03:12:29;;;;;;;13.17;6.53;;;;;;;-150.27;100.00;61272.81;5019226;29;20094;-79
2023/04/15 03:15:01;;;;;;;17.13;7.13;;;;;;;-150.27;100.00;61272.81;5005066;29;20046;-79
2023/04/15 03:17:32;;;;;;;9.50;5.80;;;;;;;-150.27;100.00;61272.81;5015639;29;20062;-79
2023/04/15 03:20:05;;;;;;;12.53;6.17;;;;;;;-150.27;100.00;61272.81;5015489;29;20113;-79
2023/04/15 03:22:36;;;;;;;14.40;6.77;;;;;;;-150.27;100.00;61272.81;5016301;29;20152;-79
2023/04/15 03:25:08;;;;;;;11.40;6.37;;;;;;;-150.27;100.00;61272.81;5017131;29;20038;-79
2023/04/15 03:27:40;;;;;;;9.03;6.33;;;;;;;-150.27;100.00;61272.81;5016027;29;20042;-78
2023/04/15 03:30:12;;;;;;;9.90;6.70;;;;;;;-150.27;100.00;61272.81;5014401;29;20067;-78
2023/04/15 03:32:43;;;;;;;14.17;6.67;;;;;;;-150.27;100.00;61272.81;5016052;29;20435;-78
2023/04/15 03:35:15;;;;;;;9.63;6.27;;;;;;;-150.27;100.00;61272.81;5016408;29;20030;-79
2023/04/15 03:37:48;;;;;;;8.90;6.60;;;;;;;-150.27;100.00;61272.81;5016812;29;20030;-80
2023/04/15 03:40:20;;;;;;;14.53;7.77;;;;;;;-150.27;100.00;61272.81;5016162;29;20211;-78
2023/04/15 03:42:51;;;;;;;13.30;6.73;;;;;;;-150.27;100.00;61272.81;5016148;29;20027;-78
2023/04/15 03:45:23;;;;;;;9.73;6.63;;;;;;;-150.27;100.00;61272.81;5016509;29;20037;-79
2023/04/15 03:47:55;;;;;;;11.53;6.73;;;;;;;-150.27;100.00;61272.81;5014239;29;20034;-78
2023/04/15 03:50:26;;;;;;;10.63;6.27;;;;;;;-150.27;100.00;61272.81;5016025;29;20034;-78
2023/04/15 03:52:57;;;;;;;12.87;7.70;;;;;;;-150.27;100.00;61272.81;5014870;29;20034;-78
2023/04/15 03:55:29;;;;;;;13.87;7.73;;;;;;;-150.27;100.00;61272.81;5015854;29;20049;-78
2023/04/15 03:58:00;;;;;;;12.00;6.63;;;;;;;-150.27;100.00;61272.81;5016583;29;20038;-79
2023/04/15 04:00:31;;;;;;;10.77;7.10;;;;;;;-150.27;100.00;61272.81;5015416;29;20038;-79
2023/04/15 04:03:03;;;;;;;8.00;6.67;;;;;;;-150.27;100.00;61272.81;5015609;29;20030;-79
2023/04/15 04:05:37;;;;;;;10.27;6.93;;;;;;;-150.27;100.00;61272.81;5015884;29;20034;-79
2023/04/15 04:08:10;;;;;;;8.40;6.78;;;;;;;-150.27;100.00;61272.81;5015955;29;20045;-79
2023/04/15 04:10:41;;;;;;;15.07;7.80;;;;;;;-150.27;100.00;61272.81;5014202;29;20034;-78
2023/04/15 04:13:12;;;;;;;12.80;7.57;;;;;;;-150.27;100.00;61272.81;5021440;29;20068;-79
2023/04/15 04:15:44;;;;;;;12.67;7.87;;;;;;;-150.27;100.00;61272.81;5038379;29;20101;-78
2023/04/15 04:18:15;;;;;;;12.57;7.00;;;;;;;-150.27;100.00;61272.81;5017095;29;20034;-79
2023/04/15 04:20:47;;;;;;;12.57;7.20;;;;;;;-150.27;100.00;61272.81;5046660;29;20021;-78
2023/04/15 04:23:18;;;;;;;10.27;7.80;;;;;;;-150.27;100.00;61272.81;5054162;29;20113;-79
2023/04/15 04:25:50;;;;;;;11.80;7.57;;;;;;;-150.27;100.00;61272.81;5054118;29;20090;-78
2023/04/15 04:28:21;;;;;;;9.17;7.17;;;;;;;-150.27;100.00;61272.81;5054141;29;20416;-79
2023/04/15 04:30:53;;;;;;;11.80;7.87;;;;;;;-150.27;100.00;61272.81;5052886;29;20025;-78
2023/04/15 04:33:24;;;;;;;10.60;7.50;;;;;;;-150.27;100.00;61272.81;5036281;29;20038;-78
2023/04/15 04:35:55;;;;;;;10.47;7.63;;;;;;;-150.27;100.00;61272.81;5030634;29;20550;-78
2023/04/15 04:38:27;;;;;;;11.57;7.13;;;;;;;-150.27;100.00;61272.81;5034188;29;20038;-78
2023/04/15 04:40:59;;;;;;;10.93;7.47;;;;;;;-150.27;100.00;61272.81;5018226;29;20029;-79
2023/04/15 04:43:30;;;;;;;15.70;8.30;;;;;;;-150.27;100.00;61272.81;5034588;29;20105;-79
2023/04/15 04:46:01;;;;;;;11.90;8.63;;;;;;;-150.27;100.00;61272.81;5025407;29;20202;-77
2023/04/15 04:48:33;;;;;;;10.20;7.90;;;;;;;-150.27;100.00;61272.81;5052823;29;20489;-78
2023/04/15 04:51:04;;;;;;;9.70;7.90;;;;;;;-150.27;100.00;61272.81;5052519;29;20029;-78
2023/04/15 04:53:36;;;;;;;12.37;8.00;;;;;;;-150.27;100.00;61272.81;5052961;29;20029;-79
2023/04/15 04:56:08;;;;;;;13.10;8.60;;;;;;;-150.27;100.00;61272.81;5037233;29;20045;-79
2023/04/15 04:58:39;;;;;;;9.13;7.00;;;;;;;-150.27;100.00;61272.81;5053005;29;20044;-80
2023/04/15 05:01:11;;;;;;;9.23;7.90;;;;;;;-150.27;100.00;61272.81;5053191;29;20125;-81
2023/04/15 05:03:43;;;;;;;9.40;7.77;;;;;;;-150.27;100.00;61272.81;5042514;29;20479;-80
2023/04/15 05:06:14;;;;;;;17.67;9.00;;;;;;;-150.27;100.00;61272.81;5035281;29;20028;-80
2023/04/15 05:08:46;;;;;;;8.83;7.93;;;;;;;-150.27;100.00;61272.81;5054029;29;20432;-80
2023/04/15 05:11:17;;;;;;;10.53;7.67;;;;;;;-150.27;100.00;61272.81;5054483;29;20085;-81
2023/04/15 05:13:49;;;;;;;12.87;8.23;;;;;;;-150.27;100.00;61272.81;5036986;29;20090;-81
2023/04/15 05:16:20;;;;;;;10.60;8.20;;;;;;;-150.27;100.00;61272.81;5053458;29;20074;-80
2023/04/15 05:18:52;;;;;;;11.43;8.40;;;;;;;-150.27;100.00;61272.81;5052841;29;20120;-79
2023/04/15 05:21:23;;;;;;;9.57;8.13;;;;;;;-150.27;100.00;61272.81;5045402;29;20068;-80
2023/04/15 05:23:55;;;;;;;10.63;8.70;;;;;;;-150.27;100.00;61272.81;5037616;29;20125;-80
2023/04/15 05:26:27;;;;;;;12.83;8.30;;;;;;;-150.27;100.00;61272.81;5053624;29;20052;-80
2023/04/15 05:28:58;;;;;;;12.90;8.77;;;;;;;-150.27;100.00;61272.81;5035222;29;20032;-80
2023/04/15 05:31:30;;;;;;;10.47;8.20;;;;;;;-150.27;100.00;61272.81;5039279;29;20069;-80
2023/04/15 05:34:02;;;;;;;14.27;9.07;;;;;;;-150.27;100.00;61272.81;5040741;29;20483;-80
2023/04/15 05:36:33;;;;;;;14.50;8.57;;;;;;;-150.27;100.00;61272.81;5035931;29;20018;-78
2023/04/15 05:39:04;;;;;;;12.00;9.57;;;;;;;-150.27;100.00;61272.81;5043365;29;20055;-79
2023/04/15 05:41:36;;;;;;;10.97;8.43;;;;;;;-150.27;100.00;61272.81;5046772;29;20033;-79
2023/04/15 05:44:08;;;;;;;15.70;9.13;;;;;;;-150.27;100.00;61272.81;5038283;29;20087;-81
2023/04/15 05:46:39;;;;;;;11.20;8.87;;;;;;;-150.27;100.00;61272.81;5042279;29;20033;-81
2023/04/15 05:49:11;;;;;;;13.43;10.40;;;;;;;-150.27;100.00;61272.81;5056358;29;20029;-79
2023/04/15 05:51:42;;;;;;;13.07;8.90;;;;;;;-150.27;100.00;61272.81;5056148;29;20069;-79
2023/04/15 05:54:13;;;;;;;14.07;9.83;;;;;;;-150.27;100.00;61272.81;5035969;29;20061;-79
2023/04/15 05:56:45;;;;;;;12.97;8.63;;;;;;;-150.27;100.00;61272.81;5055767;29;20090;-79
2023/04/15 05:59:16;;;;;;;14.10;9.53;;;;;;;-150.27;100.00;61272.81;5054836;29;20041;-79
2023/04/15 06:01:48;;;;;;;11.83;8.53;;;;;;;-150.27;100.00;61272.81;5055223;29;20052;-80
2023/04/15 06:04:19;;;;;;;15.07;9.00;;;;;;;-150.27;100.00;61272.81;5056219;29;20037;-80
2023/04/15 06:06:51;;;;;;;12.37;9.23;;;;;;;-150.27;100.00;61272.81;5056792;29;20072;-79
2023/04/15 06:09:22;;;;;;;13.00;9.07;;;;;;;-150.27;100.00;61272.81;5056831;29;20025;-79
2023/04/15 06:11:55;;;;;;;13.77;9.73;;;;;;;-150.27;100.00;61272.81;5056152;29;20104;-79
2023/04/15 06:14:26;;;;;;;11.70;10.13;;;;;;;-150.27;100.00;61272.81;5056227;29;20049;-78
2023/04/15 06:16:58;;;;;;;12.00;8.67;;;;;;;-150.27;100.00;61272.81;5038650;29;20038;-79
2023/04/15 06:19:29;;;;;;;11.07;8.77;;;;;;;-150.27;100.00;61272.81;5056128;29;20125;-78
2023/04/15 06:22:02;;;;;;;13.83;9.93;;;;;;;-150.27;100.00;61272.81;5056451;29;20029;-79
2023/04/15 06:24:35;;;;;;;11.50;8.83;;;;;;;-150.27;100.00;61272.81;5055743;29;20382;-78
2023/04/15 06:27:07;;;;;;;11.53;8.80;;;;;;;-150.27;100.00;61272.81;5039484;29;20169;-78
2023/04/15 06:29:38;;;;;;;11.17;9.83;;;;;;;-150.27;100.00;61272.81;5039096;29;20759;-79
2023/04/15 06:32:10;;;;;;;11.53;10.07;;;;;;;-150.27;100.00;61272.81;5038154;29;20032;-79
2023/04/15 06:34:42;;;;;;;12.77;9.60;;;;;;;-150.27;100.00;61272.81;5056340;29;20036;-80
2023/04/15 06:37:15;;;;;;;11.73;9.67;;;;;;;-150.27;100.00;61272.81;5055647;29;20474;-79
2023/04/15 06:39:46;;;;;;;12.80;9.40;;;;;;;-150.27;100.00;61272.81;5056265;29;20029;-79
2023/04/15 06:42:18;;;;;;;15.03;10.53;;;;;;;-150.27;100.00;61272.81;5055378;29;20030;-79
2023/04/15 06:44:49;;;;;;;12.13;9.77;;;;;;;-150.27;100.00;61272.81;5055926;29;20026;-80
2023/04/15 06:47:20;;;;;;;11.90;9.40;;;;;;;-150.27;100.00;61272.81;5055207;29;20044;-79
2023/04/15 06:49:52;;;;;;;11.60;9.73;;;;;;;-150.27;100.00;61272.81;5055940;29;20610;-79
2023/04/15 06:52:23;;;;;;;12.17;9.57;;;;;;;-150.27;100.00;61272.81;5038976;29;20029;-79
2023/04/15 06:54:54;;;;;;;20.03;10.60;;;;;;;-150.27;100.00;61272.81;5056055;29;20112;-79
2023/04/15 06:57:27;;;;;;;12.33;10.07;;;;;;;-150.27;100.00;61272.81;5049079;29;20577;-79
2023/04/15 06:59:59;;;;;;;10.63;9.50;;;;;;;-150.27;100.00;61272.81;5036801;29;20101;-79
2023/04/15 07:02:31;;;;;;;12.00;10.03;;;;;;;-150.27;100.00;61272.81;5035092;29;20117;-79
2023/04/15 07:05:03;;;;;;;16.67;10.10;;;;;;;-150.27;100.00;61272.81;5036619;29;20565;-79
2023/04/15 07:07:36;;;;;;;18.20;10.33;;;;;;;-150.27;100.00;61272.81;5036730;29;20034;-79
2023/04/15 07:10:08;;;;;;;16.77;10.33;;;;;;;-150.27;100.00;61272.81;5036138;29;20041;-79
2023/04/15 07:12:39;;;;;;;14.17;9.90;;;;;;;-150.27;100.00;61272.81;5035459;29;20038;-80
2023/04/15 07:15:11;;;;;;;11.97;9.87;;;;;;;-150.27;100.00;61272.81;5019131;29;20033;-79
2023/04/15 07:17:42;;;;;;;12.33;9.33;;;;;;;-150.27;100.00;61272.81;5035692;29;20096;-79
2023/04/15 07:20:14;;;;;;;10.47;9.30;;;;;;;-150.27;100.00;61272.81;5035870;29;20030;-79
2023/04/15 07:22:45;;;;;;;13.90;9.40;;;;;;;-150.27;100.00;61272.81;5036830;29;20026;-78
2023/04/15 07:25:17;;;;;;;10.17;8.70;;;;;;;-150.27;100.00;61272.81;5046797;29;20068;-79
2023/04/15 07:27:49;;;;;;;12.77;9.23;;;;;;;-150.27;100.00;61272.81;5035832;29;20041;-80
2023/04/15 07:30:20;;;;;;;13.00;9.13;;;;;;;-150.27;100.00;61272.81;5033855;29;20042;-79
2023/04/15 07:32:52;;;;;;;10.07;8.93;;;;;;;-150.27;100.00;61272.81;5054904;29;20065;-79
2023/04/15 07:35:24;;;;;;;12.53;9.33;;;;;;;-150.27;100.00;61272.81;5055499;29;20045;-80
2023/04/15 07:37:56;;;;;;;12.00;8.67;;;;;;;-150.27;100.00;61272.81;5055690;29;20651;-79
2023/04/15 07:40:28;;;;;;;11.53;8.80;;;;;;;-150.27;100.00;61272.81;5054445;29;20065;-79
2023/04/15 07:42:59;;;;;;;10.13;7.80;;;;;;;-150.27;100.00;61272.81;5055848;29;20105;-79
2023/04/15 07:45:31;;;;;;;8.13;7.33;;;;;;;-150.27;100.00;61272.81;5055810;29;20033;-79
2023/04/15 07:48:03;;;;;;;8.57;6.83;;;;;;;-150.27;100.00;61272.81;5055743;29;20036;-79
2023/04/15 07:50:34;;;;;;;10.73;8.03;;;;;;;-150.27;100.00;61272.81;5056093;29;20107;-78
2023/04/15 07:53:06;;;;;;;8.30;7.30;;;;;;;-150.27;100.00;61272.81;5055706;29;20025;-79
2023/04/15 07:55:37;;;;;;;8.77;7.17;;;;;;;-150.27;100.00;61272.81;5039356;29;20170;-79
2023/04/15 07:58:09;;;;;;;7.53;6.30;;;;;;;-150.27;100.00;61272.81;5056426;29;20033;-79
2023/04/15 08:00:40;;;;;;;7.87;6.43;;;;;;;-150.27;100.00;61272.81;5055101;29;20033;-79
2023/04/15 08:03:11;;;;;;;7.97;6.03;;;;;;;-150.27;100.00;61272.81;5054588;29;20029;-79
2023/04/15 08:05:44;;;;;;;6.83;5.70;;;;;;;-150.27;100.00;61272.81;5057211;29;20058;-77
2023/04/15 08:08:15;;;;;;;6.47;5.83;;;;;;;-150.27;100.00;61272.81;5057067;29;20112;-77
2023/04/15 08:10:47;;;;;;;7.13;5.90;;;;;;;-150.27;100.00;61272.81;5056889;29;20116;-77
2023/04/15 08:13:18;;;;;;;6.63;5.43;;;;;;;-150.27;100.00;61272.81;5057590;29;20085;-77
2023/04/15 08:16:13;;;;;;;8.43;5.93;;;;;;;-150.27;100.00;61272.81;5059555;29;20038;-77
2023/04/15 08:18:46;;;;;;;6.85;5.90;;;;;;;-150.27;100.00;61272.81;5053032;29;20022;-77
2023/04/15 08:21:18;;;;;;;6.27;5.20;;;;;;;-150.27;100.00;61272.81;5038382;29;20057;-77
2023/04/15 08:23:51;;;;;;;5.83;5.23;;;;;;;-150.27;100.00;61272.81;5037592;29;20030;-78
2023/04/15 08:26:23;;;;;;;8.38;5.18;;;;;;;-150.27;100.00;61272.81;5037739;29;20029;-77
2023/04/15 08:28:54;;;;;;;5.22;4.72;;;;;;;-150.27;100.00;61272.81;5037946;29;20095;-78
2023/04/15 08:31:28;;;;;;;6.50;5.43;;;;;;;-150.27;100.00;61272.81;5037543;29;20483;-77
2023/04/15 08:34:01;;;;;;;6.85;5.60;;;;;;;-150.27;100.00;61272.81;5039238;29;20094;-78
2023/04/15 08:36:32;;;;;;;6.13;4.97;;;;;;;-150.27;100.00;61272.81;5022511;29;20041;-78
2023/04/15 08:39:09;;;;;;;6.85;5.68;;;;;;;-150.27;100.00;61272.81;5022724;29;20034;-78
2023/04/15 08:41:48;;;;;;;8.73;5.60;;;;;;;-150.27;100.00;61272.81;5038922;29;20456;-79
2023/04/15 08:44:22;;;;;;;6.13;4.53;;;;;;;-150.27;100.00;61272.81;5039083;29;20076;-79
2023/04/15 08:46:55;;;;;;;4.47;4.03;;;;;;;-150.27;100.00;61272.81;5038468;29;20034;-80
2023/04/15 08:49:28;;;;;;;6.07;4.30;;;;;;;-150.27;100.00;61272.81;5038305;29;20117;-80
2023/04/15 08:52:00;;;;;;;6.10;4.20;;;;;;;-150.27;100.00;61272.81;5037274;29;20041;-80
2023/04/15 08:54:33;;;;;;;5.32;4.47;;;;;;;-150.27;100.00;61272.81;5020801;29;20032;-81
2023/04/15 08:57:05;;;;;;;5.82;4.25;;;;;;;-150.27;100.00;61272.81;5036720;29;20386;-81
2023/04/15 08:59:37;;;;;;;5.85;3.65;;;;;;;-150.27;100.00;61272.81;5020957;29;20086;-80
2023/04/15 09:02:08;;;;;;;5.90;4.20;;;;;;;-150.27;100.00;61272.81;5019054;29;20030;-78
2023/04/15 09:04:40;;;;;;;5.45;3.15;;;;;;;-150.27;100.00;61272.81;5037054;29;20037;-79
2023/04/15 09:07:11;;;;;;;6.68;4.15;;;;;;;-150.27;100.00;61272.81;5039469;29;20102;-78
2023/04/15 09:09:42;;;;;;;5.22;3.90;;;;;;;-150.27;100.00;61272.81;5040265;29;20061;-79
2023/04/15 09:12:15;;;;;;;6.15;3.25;;;;;;;-150.27;100.00;61272.81;5047079;29;20056;-79
2023/04/15 09:14:48;;;;;;;4.87;3.43;;;;;;;-150.27;100.00;61272.81;5031952;29;20120;-79
2023/04/15 09:17:20;;;;;;;4.38;2.65;;;;;;;-150.27;100.00;61272.81;5041350;29;20287;-79
2023/04/15 09:20:07;;;;;;;3.80;2.80;;;;;;;-150.27;100.00;61272.81;5058785;29;20025;-79
2023/04/15 09:22:39;;;;;;;6.57;3.42;;;;;;;-150.27;100.00;61272.81;5058065;29;20037;-80
2023/04/15 09:25:14;;;;;;;7.13;4.10;;;;;;;-150.27;100.00;61272.81;5040351;29;20032;-80
2023/04/15 09:27:57;;;;;;;4.95;3.92;;;;;;;-150.27;100.00;61272.81;5047316;29;20022;-79
2023/04/15 09:30:28;;;;;;;4.57;3.42;;;;;;;-150.27;100.00;61272.81;5038587;29;20112;-79
2023/04/15 09:33:03;;;;;;;4.75;3.65;;;;;;;-150.27;100.00;61272.81;5038097;29;20048;-80
2023/04/15 09:35:35;;;;;;;3.90;2.70;;;;;;;-150.27;100.00;61272.81;5025146;29;20097;-78
2023/04/15 09:38:08;;;;;;;4.70;2.83;;;;;;;-150.27;100.00;61272.81;5041525;29;20052;-80
2023/04/15 09:40:41;;;;;;;7.50;2.80;;;;;;;-150.27;100.00;61272.81;5040706;29;20037;-80
2023/04/15 09:43:12;;;;;;;4.85;3.10;;;;;;;-150.27;100.00;61272.81;5040970;29;20029;-80
2023/04/15 09:45:51;;;;;;;5.70;3.35;;;;;;;-150.27;100.00;61272.81;5031395;29;20032;-80
2023/04/15 09:48:26;;;;;;;3.72;2.60;;;;;;;-150.27;100.00;61272.81;5048161;29;20057;-81
2023/04/15 09:50:59;;;;;;;5.25;3.13;;;;;;;-150.27;100.00;61272.81;5038261;29;20038;-80
2023/04/15 09:53:35;;;;;;;4.75;3.03;;;;;;;-150.27;100.00;61272.81;5053778;29;20120;-78
2023/04/15 09:56:07;;;;;;;4.75;3.33;;;;;;;-150.27;100.00;61272.81;5040617;29;20125;-80
2023/04/15 09:58:41;;;;;;;5.75;3.00;;;;;;;-150.27;100.00;61272.81;5056980;29;20037;-79
2023/04/15 10:01:12;;;;;;;5.47;2.42;;;;;;;-150.27;100.00;61272.81;5055918;29;20029;-80
2023/04/15 10:03:44;;;;;;;2.90;2.42;;;;;;;-150.27;100.00;61272.81;5056032;29;20032;-79
2023/04/15 10:06:16;;;;;;;2.85;2.33;;;;;;;-150.27;100.00;61272.81;5037525;29;20022;-79
2023/04/15 10:08:51;;;;;;;5.00;2.83;;;;;;;-150.27;100.00;61272.81;5039656;29;20652;-80
2023/04/15 10:11:23;;;;;;;5.85;3.00;;;;;;;-150.27;100.00;61272.81;5056148;29;20362;-79
2023/04/15 10:13:56;;;;;;;3.72;3.00;;;;;;;-150.27;100.00;61272.81;5056696;29;20041;-79
2023/04/15 10:16:28;;;;;;;4.03;2.92;;;;;;;-150.27;100.00;61272.81;5054758;29;20022;-79
2023/04/15 10:19:03;;;;;;;3.70;3.10;;;;;;;-150.27;100.00;61272.81;5056996;29;20033;-82
2023/04/15 10:21:36;;;;;;;3.22;2.70;;;;;;;-150.27;100.00;61272.81;5055396;29;20038;-80
2023/04/15 10:24:08;;;;;;;3.45;2.85;;;;;;;-150.27;100.00;61272.81;5056006;29;20032;-80
2023/04/15 10:26:40;;;;;;;2.78;2.20;;;;;;;-150.27;100.00;61272.81;5039172;29;20037;-80
2023/04/15 10:29:12;;;;;;;3.00;2.70;;;;;;;-150.27;100.00;61272.81;5055893;29;20029;-81
2023/04/15 10:31:43;;;;;;;3.55;2.83;;;;;;;-150.27;100.00;61272.81;5055482;29;20029;-79
2023/04/15 10:34:16;;;;;;;3.67;2.80;;;;;;;-150.27;100.00;61272.81;5038902;29;20057;-80
2023/04/15 10:36:47;;;;;;;5.57;3.00;;;;;;;-150.27;100.00;61272.81;5056759;29;20380;-80
2023/04/15 10:39:39;;;;;;;4.30;2.33;;;;;;;-150.27;100.00;61272.81;5055490;29;20138;-81
2023/04/15 10:42:16;;;;;;;5.05;2.55;;;;;;;-150.27;100.00;61272.81;5039166;29;20033;-80
2023/04/15 10:44:50;;;;;;;4.03;1.80;;;;;;;-150.27;100.00;61272.81;5055820;29;20619;-79
2023/04/15 10:47:22;;;;;;;3.95;1.98;;;;;;;-150.27;100.00;61272.81;5054202;29;20112;-81
2023/04/15 10:49:58;;;;;;;3.95;2.05;;;;;;;-150.27;100.00;61272.81;5056010;29;20816;-80
2023/04/15 10:52:29;;;;;;;3.55;2.10;;;;;;;-150.27;100.00;61272.81;5055153;29;20067;-79
2023/04/15 10:55:10;;;;;;;3.03;2.10;;;;;;;-150.27;100.00;61272.81;5054211;29;20044;-80
2023/04/15 10:57:42;;;;;;;2.67;1.80;;;;;;;-150.27;100.00;61272.81;5055959;29;20133;-80
2023/04/15 11:00:15;;;;;;;6.13;2.17;;;;;;;-150.27;100.00;61272.81;5038356;29;20746;-80
2023/04/15 11:02:50;;;;;;;3.65;2.33;;;;;;;-150.27;100.00;61272.81;5054470;29;20286;-81
2023/04/15 11:05:41;;;;;;;3.38;2.00;;;;;;;-150.27;100.00;61272.81;5048419;29;20170;-81
2023/04/15 11:08:15;;;;;;;4.15;2.65;;;;;;;-150.27;100.00;61272.81;5005823;29;20074;-81
2023/04/15 11:10:47;;;;;;;5.43;2.38;;;;;;;-150.27;100.00;61272.81;5046408;29;20108;-81
2023/04/15 11:13:23;;;;;;;3.95;2.00;;;;;;;-150.27;100.00;61272.81;5054711;29;20056;-80
2023/04/15 11:15:57;;;;;;;6.60;1.80;;;;;;;-150.27;100.00;61272.81;5037131;29;20037;-80
2023/04/15 11:18:30;;;;;;;4.00;2.20;;;;;;;-150.27;100.00;61272.81;5055017;29;20379;-81
2023/04/15 11:21:06;;;;;;;3.13;2.05;;;;;;;-150.27;100.00;61272.81;5054002;29;20033;-78
2023/04/15 11:23:40;;;;;;;4.13;2.47;;;;;;;-150.27;100.00;61272.81;5054657;29;20021;-79
2023/04/15 11:26:11;;;;;;;5.60;2.65;;;;;;;-150.27;100.00;61272.81;5054587;29;20089;-80
2023/04/15 11:28:44;;;;;;;4.40;2.38;;;;;;;-150.27;100.00;61272.81;5054527;29;20044;-80